Terminal Aerodrome Forecast
Issued by NWS

Home | Current Version | Previous Version | Text Only | Print | Product List | Glossary On
Versions: 1 2 3 4 5 6 7 8 9 10 11 12 13 14 15
108
FTUS44 KJAN 271219 AAA
TAFHKS
TAF AMD
KHKS 271219Z 2712/2812 33011G24KT 1 1/2SM +TSRA BR BKN019CB OVC029
     FM271330 14006KT 3SM SHRA BR VCTS BKN012CB OVC020
     FM271600 15008KT 6SM -SHRA BR BKN010 BKN030
     FM271900 13008KT P6SM SCT030 BKN100
     FM280800 15010KT 4SM BR BKN010=

USA.gov is the U.S. government's official web portal to all federal, state and local government web resources and services.